sensor_id;sensor_type;location;lat;lon;timestamp;temperature;humidity
33715;DHT22;20043;50.998;4.754;2022-07-21T00:00:49;20.00;99.90
33715;DHT22;20043;50.998;4.754;2022-07-21T00:03:14;20.00;99.90
33715;DHT22;20043;50.998;4.754;2022-07-21T00:05:40;19.90;99.90
33715;DHT22;20043;50.998;4.754;2022-07-21T00:08:05;19.90;99.90
33715;DHT22;20043;50.998;4.754;2022-07-21T00:10:31;19.90;99.90
33715;DHT22;20043;50.998;4.754;2022-07-21T00:12:57;19.80;99.90
33715;DHT22;20043;50.998;4.754;2022-07-21T00:15:24;19.90;99.90
33715;DHT22;20043;50.998;4.754;2022-07-21T00:17:51;19.90;99.90
33715;DHT22;20043;50.998;4.754;2022-07-21T00:20:17;20.00;99.90
33715;DHT22;20043;50.998;4.754;2022-07-21T00:22:43;19.90;99.90
33715;DHT22;20043;50.998;4.754;2022-07-21T00:25:10;19.90;99.90
33715;DHT22;20043;50.998;4.754;2022-07-21T00:27:37;19.90;99.90
33715;DHT22;20043;50.998;4.754;2022-07-21T00:30:04;19.90;99.90
33715;DHT22;20043;50.998;4.754;2022-07-21T00:32:30;19.90;99.90
33715;DHT22;20043;50.998;4.754;2022-07-21T00:34:56;19.90;99.90
33715;DHT22;20043;50.998;4.754;2022-07-21T00:37:22;20.00;99.90
33715;DHT22;20043;50.998;4.754;2022-07-21T00:39:50;20.00;99.90
33715;DHT22;20043;50.998;4.754;2022-07-21T00:42:27;19.90;99.90
33715;DHT22;20043;50.998;4.754;2022-07-21T00:44:53;19.90;99.90
33715;DHT22;20043;50.998;4.754;2022-07-21T00:47:20;19.80;99.90
33715;DHT22;20043;50.998;4.754;2022-07-21T00:49:47;19.80;99.90
33715;DHT22;20043;50.998;4.754;2022-07-21T00:52:13;19.90;99.90
33715;DHT22;20043;50.998;4.754;2022-07-21T00:54:38;20.00;99.90
33715;DHT22;20043;50.998;4.754;2022-07-21T00:57:05;19.90;99.90
33715;DHT22;20043;50.998;4.754;2022-07-21T00:59:30;20.10;99.90
33715;DHT22;20043;50.998;4.754;2022-07-21T01:01:56;20.20;99.90
33715;DHT22;20043;50.998;4.754;2022-07-21T01:04:22;20.30;99.90
33715;DHT22;20043;50.998;4.754;2022-07-21T01:06:48;20.30;99.90
33715;DHT22;20043;50.998;4.754;2022-07-21T01:09:14;20.40;99.90
33715;DHT22;20043;50.998;4.754;2022-07-21T01:11:40;20.30;99.90
33715;DHT22;20043;50.998;4.754;2022-07-21T01:14:07;20.30;99.90
33715;DHT22;20043;50.998;4.754;2022-07-21T01:16:32;20.40;99.90
33715;DHT22;20043;50.998;4.754;2022-07-21T01:18:58;20.30;99.90
33715;DHT22;20043;50.998;4.754;2022-07-21T01:23:55;20.40;99.90
33715;DHT22;20043;50.998;4.754;2022-07-21T01:26:21;20.40;99.90
33715;DHT22;20043;50.998;4.754;2022-07-21T01:28:47;20.50;99.90
33715;DHT22;20043;50.998;4.754;2022-07-21T01:31:13;20.60;99.90
33715;DHT22;20043;50.998;4.754;2022-07-21T01:33:40;20.70;99.90
33715;DHT22;20043;50.998;4.754;2022-07-21T01:36:06;20.60;99.90
33715;DHT22;20043;50.998;4.754;2022-07-21T01:38:31;20.60;99.90
33715;DHT22;20043;50.998;4.754;2022-07-21T01:41:16;20.60;99.90
33715;DHT22;20043;50.998;4.754;2022-07-21T01:44:17;20.60;99.90
33715;DHT22;20043;50.998;4.754;2022-07-21T01:46:46;20.50;99.90
33715;DHT22;20043;50.998;4.754;2022-07-21T01:49:13;20.50;99.90
33715;DHT22;20043;50.998;4.754;2022-07-21T01:51:39;20.50;99.90
33715;DHT22;20043;50.998;4.754;2022-07-21T01:54:06;20.50;99.90
33715;DHT22;20043;50.998;4.754;2022-07-21T01:56:34;20.50;99.90
33715;DHT22;20043;50.998;4.754;2022-07-21T01:59:00;20.60;99.90
33715;DHT22;20043;50.998;4.754;2022-07-21T02:01:28;20.60;99.90
33715;DHT22;20043;50.998;4.754;2022-07-21T02:03:55;20.70;99.90
33715;DHT22;20043;50.998;4.754;2022-07-21T02:06:22;20.70;99.90
33715;DHT22;20043;50.998;4.754;2022-07-21T02:08:48;20.70;99.90
33715;DHT22;20043;50.998;4.754;2022-07-21T02:11:15;20.50;99.90
33715;DHT22;20043;50.998;4.754;2022-07-21T02:13:41;20.40;99.90
33715;DHT22;20043;50.998;4.754;2022-07-21T02:16:07;20.40;99.90
33715;DHT22;20043;50.998;4.754;2022-07-21T02:18:34;20.30;99.90
33715;DHT22;20043;50.998;4.754;2022-07-21T02:21:00;20.20;99.90
33715;DHT22;20043;50.998;4.754;2022-07-21T02:23:26;20.20;99.90
33715;DHT22;20043;50.998;4.754;2022-07-21T02:25:52;20.10;99.90
33715;DHT22;20043;50.998;4.754;2022-07-21T02:28:19;19.90;99.90
33715;DHT22;20043;50.998;4.754;2022-07-21T02:30:44;19.90;99.90
33715;DHT22;20043;50.998;4.754;2022-07-21T02:33:10;19.80;99.90
33715;DHT22;20043;50.998;4.754;2022-07-21T02:35:36;19.80;99.90
33715;DHT22;20043;50.998;4.754;2022-07-21T02:38:02;19.80;99.90
33715;DHT22;20043;50.998;4.754;2022-07-21T02:40:28;19.70;99.90
33715;DHT22;20043;50.998;4.754;2022-07-21T02:42:53;19.70;99.90
33715;DHT22;20043;50.998;4.754;2022-07-21T02:45:19;19.70;99.90
33715;DHT22;20043;50.998;4.754;2022-07-21T02:47:56;19.60;99.90
33715;DHT22;20043;50.998;4.754;2022-07-21T02:50:24;19.60;99.90
33715;DHT22;20043;50.998;4.754;2022-07-21T02:52:57;19.60;99.90
33715;DHT22;20043;50.998;4.754;2022-07-21T02:55:24;19.60;99.90
33715;DHT22;20043;50.998;4.754;2022-07-21T02:57:49;19.60;99.90
33715;DHT22;20043;50.998;4.754;2022-07-21T03:00:15;19.60;99.90
33715;DHT22;20043;50.998;4.754;2022-07-21T03:02:41;19.60;99.90
33715;DHT22;20043;50.998;4.754;2022-07-21T03:05:07;19.60;99.90
33715;DHT22;20043;50.998;4.754;2022-07-21T03:07:33;19.70;99.90
33715;DHT22;20043;50.998;4.754;2022-07-21T03:09:58;19.70;99.90
33715;DHT22;20043;50.998;4.754;2022-07-21T03:12:24;19.80;99.90
33715;DHT22;20043;50.998;4.754;2022-07-21T03:14:49;19.80;99.90
33715;DHT22;20043;50.998;4.754;2022-07-21T03:17:15;19.80;99.90
33715;DHT22;20043;50.998;4.754;2022-07-21T03:19:40;19.80;99.90
33715;DHT22;20043;50.998;4.754;2022-07-21T03:22:06;19.80;99.90
33715;DHT22;20043;50.998;4.754;2022-07-21T03:24:31;19.90;99.90
33715;DHT22;20043;50.998;4.754;2022-07-21T03:26:57;20.00;99.90
33715;DHT22;20043;50.998;4.754;2022-07-21T03:29:23;20.00;99.90
33715;DHT22;20043;50.998;4.754;2022-07-21T03:31:49;20.10;99.90
33715;DHT22;20043;50.998;4.754;2022-07-21T03:34:15;20.00;99.90
33715;DHT22;20043;50.998;4.754;2022-07-21T03:36:40;19.90;99.90
33715;DHT22;20043;50.998;4.754;2022-07-21T03:39:06;19.90;99.90
33715;DHT22;20043;50.998;4.754;2022-07-21T03:41:32;20.10;99.90
33715;DHT22;20043;50.998;4.754;2022-07-21T03:43:57;20.10;99.90
33715;DHT22;20043;50.998;4.754;2022-07-21T03:46:23;20.20;99.90
33715;DHT22;20043;50.998;4.754;2022-07-21T03:48:49;20.30;99.90
33715;DHT22;20043;50.998;4.754;2022-07-21T03:51:14;20.40;99.90
33715;DHT22;20043;50.998;4.754;2022-07-21T03:53:40;20.30;99.90
33715;DHT22;20043;50.998;4.754;2022-07-21T03:56:06;20.30;99.90
33715;DHT22;20043;50.998;4.754;2022-07-21T03:58:31;20.30;99.90
33715;DHT22;20043;50.998;4.754;2022-07-21T04:00:57;20.30;99.90
33715;DHT22;20043;50.998;4.754;2022-07-21T04:03:23;20.30;99.90
33715;DHT22;20043;50.998;4.754;2022-07-21T04:05:49;20.20;99.90
33715;DHT22;20043;50.998;4.754;2022-07-21T04:08:14;20.20;99.90
33715;DHT22;20043;50.998;4.754;2022-07-21T04:10:42;20.10;99.90
33715;DHT22;20043;50.998;4.754;2022-07-21T04:13:09;20.00;99.90
33715;DHT22;20043;50.998;4.754;2022-07-21T04:15:36;20.10;99.90
33715;DHT22;20043;50.998;4.754;2022-07-21T04:18:03;20.00;99.90
33715;DHT22;20043;50.998;4.754;2022-07-21T04:20:30;19.90;99.90
33715;DHT22;20043;50.998;4.754;2022-07-21T04:22:55;19.90;99.90
33715;DHT22;20043;50.998;4.754;2022-07-21T04:25:22;19.90;99.90
33715;DHT22;20043;50.998;4.754;2022-07-21T04:27:48;19.90;99.90
33715;DHT22;20043;50.998;4.754;2022-07-21T04:30:17;19.90;99.90
33715;DHT22;20043;50.998;4.754;2022-07-21T04:32:43;19.90;99.90
33715;DHT22;20043;50.998;4.754;2022-07-21T04:35:09;20.00;99.90
33715;DHT22;20043;50.998;4.754;2022-07-21T04:37:35;19.90;99.90
33715;DHT22;20043;50.998;4.754;2022-07-21T04:40:02;19.90;99.90
33715;DHT22;20043;50.998;4.754;2022-07-21T04:42:28;19.80;99.90
33715;DHT22;20043;50.998;4.754;2022-07-21T04:44:54;19.80;99.90
33715;DHT22;20043;50.998;4.754;2022-07-21T04:47:19;19.80;99.90
33715;DHT22;20043;50.998;4.754;2022-07-21T04:49:45;19.80;99.90
33715;DHT22;20043;50.998;4.754;2022-07-21T04:52:11;19.80;99.90
33715;DHT22;20043;50.998;4.754;2022-07-21T04:54:36;19.80;99.90
33715;DHT22;20043;50.998;4.754;2022-07-21T04:57:02;19.90;99.90
33715;DHT22;20043;50.998;4.754;2022-07-21T04:59:29;19.90;99.90
33715;DHT22;20043;50.998;4.754;2022-07-21T05:01:56;19.90;99.90
33715;DHT22;20043;50.998;4.754;2022-07-21T05:04:21;19.90;99.90
33715;DHT22;20043;50.998;4.754;2022-07-21T05:06:47;20.00;99.90
33715;DHT22;20043;50.998;4.754;2022-07-21T05:09:13;20.00;99.90
33715;DHT22;20043;50.998;4.754;2022-07-21T05:11:39;20.00;99.90
33715;DHT22;20043;50.998;4.754;2022-07-21T05:14:05;20.00;99.90
33715;DHT22;20043;50.998;4.754;2022-07-21T05:16:30;20.00;99.90
33715;DHT22;20043;50.998;4.754;2022-07-21T05:18:56;20.00;99.90
33715;DHT22;20043;50.998;4.754;2022-07-21T05:21:22;20.10;99.90
33715;DHT22;20043;50.998;4.754;2022-07-21T05:23:47;20.10;99.90
33715;DHT22;20043;50.998;4.754;2022-07-21T05:26:13;20.20;99.90
33715;DHT22;20043;50.998;4.754;2022-07-21T05:28:39;20.10;99.90
33715;DHT22;20043;50.998;4.754;2022-07-21T05:31:05;20.20;99.90
33715;DHT22;20043;50.998;4.754;2022-07-21T05:33:31;20.20;99.90
33715;DHT22;20043;50.998;4.754;2022-07-21T05:35:56;20.10;99.90
33715;DHT22;20043;50.998;4.754;2022-07-21T05:38:22;20.00;99.90
33715;DHT22;20043;50.998;4.754;2022-07-21T05:40:48;20.00;99.90
33715;DHT22;20043;50.998;4.754;2022-07-21T05:43:13;20.10;99.90
33715;DHT22;20043;50.998;4.754;2022-07-21T05:45:39;20.00;99.90
33715;DHT22;20043;50.998;4.754;2022-07-21T05:48:04;20.00;99.90
33715;DHT22;20043;50.998;4.754;2022-07-21T05:50:30;20.00;99.90
33715;DHT22;20043;50.998;4.754;2022-07-21T05:52:56;20.10;99.90
33715;DHT22;20043;50.998;4.754;2022-07-21T05:55:21;20.10;99.90
33715;DHT22;20043;50.998;4.754;2022-07-21T05:57:47;20.20;99.90
33715;DHT22;20043;50.998;4.754;2022-07-21T06:00:14;20.20;99.90
33715;DHT22;20043;50.998;4.754;2022-07-21T06:02:39;20.20;99.90
33715;DHT22;20043;50.998;4.754;2022-07-21T06:05:05;20.10;99.90
33715;DHT22;20043;50.998;4.754;2022-07-21T06:07:32;20.20;99.90
33715;DHT22;20043;50.998;4.754;2022-07-21T06:09:58;20.20;99.90
33715;DHT22;20043;50.998;4.754;2022-07-21T06:12:25;20.20;99.90
33715;DHT22;20043;50.998;4.754;2022-07-21T06:14:51;20.20;99.90
33715;DHT22;20043;50.998;4.754;2022-07-21T06:17:17;20.20;99.90
33715;DHT22;20043;50.998;4.754;2022-07-21T06:19:42;20.30;99.90
33715;DHT22;20043;50.998;4.754;2022-07-21T06:22:08;20.20;99.90
33715;DHT22;20043;50.998;4.754;2022-07-21T06:24:33;20.20;99.90
33715;DHT22;20043;50.998;4.754;2022-07-21T06:26:59;20.20;99.90
33715;DHT22;20043;50.998;4.754;2022-07-21T06:29:25;20.20;99.90
33715;DHT22;20043;50.998;4.754;2022-07-21T06:31:50;20.20;99.90
33715;DHT22;20043;50.998;4.754;2022-07-21T06:34:16;20.20;99.90
33715;DHT22;20043;50.998;4.754;2022-07-21T06:36:42;20.10;99.90
33715;DHT22;20043;50.998;4.754;2022-07-21T06:39:08;20.00;99.90
33715;DHT22;20043;50.998;4.754;2022-07-21T06:41:33;19.90;99.90
33715;DHT22;20043;50.998;4.754;2022-07-21T06:43:59;19.90;99.90
33715;DHT22;20043;50.998;4.754;2022-07-21T06:46:25;19.90;99.90
33715;DHT22;20043;50.998;4.754;2022-07-21T06:48:51;19.90;99.90
33715;DHT22;20043;50.998;4.754;2022-07-21T06:51:17;19.90;99.90
33715;DHT22;20043;50.998;4.754;2022-07-21T06:53:42;19.90;99.90
33715;DHT22;20043;50.998;4.754;2022-07-21T06:56:08;19.90;99.90
33715;DHT22;20043;50.998;4.754;2022-07-21T06:58:41;19.90;99.90
33715;DHT22;20043;50.998;4.754;2022-07-21T07:01:13;19.90;99.90
33715;DHT22;20043;50.998;4.754;2022-07-21T07:03:43;19.80;99.90
33715;DHT22;20043;50.998;4.754;2022-07-21T07:06:09;19.80;99.90
33715;DHT22;20043;50.998;4.754;2022-07-21T07:08:36;19.70;99.90
33715;DHT22;20043;50.998;4.754;2022-07-21T07:11:03;19.70;99.90
33715;DHT22;20043;50.998;4.754;2022-07-21T07:13:29;19.80;99.90
33715;DHT22;20043;50.998;4.754;2022-07-21T07:15:55;19.90;99.90
33715;DHT22;20043;50.998;4.754;2022-07-21T07:18:21;19.80;99.90
33715;DHT22;20043;50.998;4.754;2022-07-21T07:20:49;19.80;99.90
33715;DHT22;20043;50.998;4.754;2022-07-21T07:23:16;19.80;99.90
33715;DHT22;20043;50.998;4.754;2022-07-21T07:25:41;19.80;99.90
33715;DHT22;20043;50.998;4.754;2022-07-21T07:28:07;19.80;99.90
33715;DHT22;20043;50.998;4.754;2022-07-21T07:30:35;19.80;99.90
33715;DHT22;20043;50.998;4.754;2022-07-21T07:33:00;19.80;99.90
33715;DHT22;20043;50.998;4.754;2022-07-21T07:35:26;19.70;99.90
33715;DHT22;20043;50.998;4.754;2022-07-21T07:37:52;19.70;99.90
33715;DHT22;20043;50.998;4.754;2022-07-21T07:40:20;19.60;99.90
33715;DHT22;20043;50.998;4.754;2022-07-21T07:42:46;19.60;99.90
33715;DHT22;20043;50.998;4.754;2022-07-21T07:45:13;19.50;99.90
33715;DHT22;20043;50.998;4.754;2022-07-21T07:47:39;19.50;99.90
33715;DHT22;20043;50.998;4.754;2022-07-21T07:50:08;19.50;99.90
33715;DHT22;20043;50.998;4.754;2022-07-21T07:52:34;19.40;99.90
33715;DHT22;20043;50.998;4.754;2022-07-21T07:55:00;19.30;99.90
33715;DHT22;20043;50.998;4.754;2022-07-21T07:57:30;19.30;99.90
33715;DHT22;20043;50.998;4.754;2022-07-21T07:59:55;19.20;99.90
33715;DHT22;20043;50.998;4.754;2022-07-21T08:02:21;19.30;99.90
33715;DHT22;20043;50.998;4.754;2022-07-21T08:04:47;19.30;99.90
33715;DHT22;20043;50.998;4.754;2022-07-21T08:07:12;19.40;99.90
33715;DHT22;20043;50.998;4.754;2022-07-21T08:09:39;19.40;99.90
33715;DHT22;20043;50.998;4.754;2022-07-21T08:12:05;19.30;99.90
33715;DHT22;20043;50.998;4.754;2022-07-21T08:14:30;19.30;99.90
33715;DHT22;20043;50.998;4.754;2022-07-21T08:16:56;19.40;99.90
33715;DHT22;20043;50.998;4.754;2022-07-21T08:19:24;19.30;99.90
33715;DHT22;20043;50.998;4.754;2022-07-21T08:21:50;19.40;99.90
33715;DHT22;20043;50.998;4.754;2022-07-21T08:24:15;19.40;99.90
33715;DHT22;20043;50.998;4.754;2022-07-21T08:26:41;19.50;99.90
33715;DHT22;20043;50.998;4.754;2022-07-21T08:29:07;19.40;99.90
33715;DHT22;20043;50.998;4.754;2022-07-21T08:31:32;19.40;99.90
33715;DHT22;20043;50.998;4.754;2022-07-21T08:33:58;19.50;99.90
33715;DHT22;20043;50.998;4.754;2022-07-21T08:36:23;19.50;99.90
33715;DHT22;20043;50.998;4.754;2022-07-21T08:38:49;19.40;99.90
33715;DHT22;20043;50.998;4.754;2022-07-21T08:41:15;19.40;99.90
33715;DHT22;20043;50.998;4.754;2022-07-21T08:43:41;19.50;99.90
33715;DHT22;20043;50.998;4.754;2022-07-21T08:46:06;19.50;99.90
33715;DHT22;20043;50.998;4.754;2022-07-21T08:48:32;19.50;99.90
33715;DHT22;20043;50.998;4.754;2022-07-21T08:50:58;19.50;99.90
33715;DHT22;20043;50.998;4.754;2022-07-21T08:53:24;19.50;99.90
33715;DHT22;20043;50.998;4.754;2022-07-21T08:55:51;19.60;99.90
33715;DHT22;20043;50.998;4.754;2022-07-21T08:58:16;19.60;99.90
33715;DHT22;20043;50.998;4.754;2022-07-21T09:00:46;19.60;99.90
33715;DHT22;20043;50.998;4.754;2022-07-21T09:03:26;19.60;99.90
33715;DHT22;20043;50.998;4.754;2022-07-21T09:06:12;19.60;99.90
33715;DHT22;20043;50.998;4.754;2022-07-21T09:08:42;19.60;99.90
33715;DHT22;20043;50.998;4.754;2022-07-21T09:11:22;19.60;99.90
33715;DHT22;20043;50.998;4.754;2022-07-21T09:14:03;19.80;99.90
33715;DHT22;20043;50.998;4.754;2022-07-21T09:16:56;19.90;99.90
33715;DHT22;20043;50.998;4.754;2022-07-21T09:21:50;20.10;99.90
33715;DHT22;20043;50.998;4.754;2022-07-21T09:24:24;20.20;99.90
33715;DHT22;20043;50.998;4.754;2022-07-21T09:27:11;20.30;99.90
33715;DHT22;20043;50.998;4.754;2022-07-21T09:29:40;20.20;99.90
33715;DHT22;20043;50.998;4.754;2022-07-21T09:32:35;20.10;99.90
33715;DHT22;20043;50.998;4.754;2022-07-21T09:35:06;20.10;99.90
33715;DHT22;20043;50.998;4.754;2022-07-21T09:37:33;20.10;99.90
33715;DHT22;20043;50.998;4.754;2022-07-21T09:40:01;20.00;99.90
33715;DHT22;20043;50.998;4.754;2022-07-21T09:42:36;20.00;99.90
33715;DHT22;20043;50.998;4.754;2022-07-21T09:45:10;20.00;99.90
33715;DHT22;20043;50.998;4.754;2022-07-21T09:47:38;19.90;99.90
33715;DHT22;20043;50.998;4.754;2022-07-21T09:50:05;19.90;99.90
33715;DHT22;20043;50.998;4.754;2022-07-21T09:52:32;20.00;99.90
33715;DHT22;20043;50.998;4.754;2022-07-21T09:55:02;20.10;99.90
33715;DHT22;20043;50.998;4.754;2022-07-21T09:57:29;20.10;99.90
33715;DHT22;20043;50.998;4.754;2022-07-21T09:59:55;20.00;99.90
33715;DHT22;20043;50.998;4.754;2022-07-21T10:02:28;19.90;99.90
33715;DHT22;20043;50.998;4.754;2022-07-21T10:05:00;20.00;99.90
33715;DHT22;20043;50.998;4.754;2022-07-21T10:07:27;20.10;99.90
33715;DHT22;20043;50.998;4.754;2022-07-21T10:09:55;20.20;99.90
33715;DHT22;20043;50.998;4.754;2022-07-21T10:12:21;20.30;99.90
33715;DHT22;20043;50.998;4.754;2022-07-21T10:14:47;20.30;99.90
33715;DHT22;20043;50.998;4.754;2022-07-21T10:17:14;20.30;99.90
33715;DHT22;20043;50.998;4.754;2022-07-21T10:20:08;20.40;99.90
33715;DHT22;20043;50.998;4.754;2022-07-21T10:25:18;20.60;99.90
33715;DHT22;20043;50.998;4.754;2022-07-21T10:28:22;20.70;99.90
33715;DHT22;20043;50.998;4.754;2022-07-21T10:30:53;20.70;99.90
33715;DHT22;20043;50.998;4.754;2022-07-21T10:41:42;21.40;99.90
33715;DHT22;20043;50.998;4.754;2022-07-21T10:49:54;21.70;99.90
33715;DHT22;20043;50.998;4.754;2022-07-21T10:55:27;21.50;99.90
33715;DHT22;20043;50.998;4.754;2022-07-21T10:58:13;21.50;99.90
33715;DHT22;20043;50.998;4.754;2022-07-21T11:00:52;21.50;99.90
33715;DHT22;20043;50.998;4.754;2022-07-21T11:03:23;21.60;99.90
33715;DHT22;20043;50.998;4.754;2022-07-21T11:08:38;21.60;99.90
33715;DHT22;20043;50.998;4.754;2022-07-21T11:11:25;21.40;99.90
33715;DHT22;20043;50.998;4.754;2022-07-21T11:19:33;21.20;99.90
33715;DHT22;20043;50.998;4.754;2022-07-21T11:22:03;21.20;99.90
33715;DHT22;20043;50.998;4.754;2022-07-21T11:24:29;21.20;99.90
33715;DHT22;20043;50.998;4.754;2022-07-21T11:26:59;21.10;99.90
33715;DHT22;20043;50.998;4.754;2022-07-21T11:29:25;21.20;99.90
33715;DHT22;20043;50.998;4.754;2022-07-21T11:31:52;21.20;99.90
33715;DHT22;20043;50.998;4.754;2022-07-21T11:34:18;21.00;99.90
33715;DHT22;20043;50.998;4.754;2022-07-21T11:36:44;21.00;99.90
33715;DHT22;20043;50.998;4.754;2022-07-21T11:39:13;21.10;99.90
33715;DHT22;20043;50.998;4.754;2022-07-21T11:41:40;21.10;99.90
33715;DHT22;20043;50.998;4.754;2022-07-21T11:44:08;20.90;99.90
33715;DHT22;20043;50.998;4.754;2022-07-21T11:46:52;20.90;99.90
33715;DHT22;20043;50.998;4.754;2022-07-21T11:49:18;20.80;99.90
33715;DHT22;20043;50.998;4.754;2022-07-21T11:51:58;20.60;99.90
33715;DHT22;20043;50.998;4.754;2022-07-21T11:54:46;20.60;99.90
33715;DHT22;20043;50.998;4.754;2022-07-21T11:57:11;20.50;99.90
33715;DHT22;20043;50.998;4.754;2022-07-21T11:59:37;20.60;99.90
33715;DHT22;20043;50.998;4.754;2022-07-21T12:04:54;20.60;99.90
33715;DHT22;20043;50.998;4.754;2022-07-21T12:12:45;20.40;99.90
33715;DHT22;20043;50.998;4.754;2022-07-21T12:15:15;20.20;99.90
33715;DHT22;20043;50.998;4.754;2022-07-21T12:17:48;20.00;99.90
33715;DHT22;20043;50.998;4.754;2022-07-21T12:20:19;20.00;99.90
33715;DHT22;20043;50.998;4.754;2022-07-21T12:22:48;20.10;99.90
33715;DHT22;20043;50.998;4.754;2022-07-21T12:25:17;20.10;99.90
33715;DHT22;20043;50.998;4.754;2022-07-21T12:27:47;20.20;99.90
33715;DHT22;20043;50.998;4.754;2022-07-21T12:30:42;20.20;99.90
33715;DHT22;20043;50.998;4.754;2022-07-21T12:33:17;20.20;99.90
33715;DHT22;20043;50.998;4.754;2022-07-21T12:36:05;20.30;99.90
33715;DHT22;20043;50.998;4.754;2022-07-21T12:38:42;20.20;99.90
33715;DHT22;20043;50.998;4.754;2022-07-21T12:41:11;20.10;99.90
33715;DHT22;20043;50.998;4.754;2022-07-21T12:43:37;20.20;99.90
33715;DHT22;20043;50.998;4.754;2022-07-21T12:46:16;20.20;99.90
33715;DHT22;20043;50.998;4.754;2022-07-21T12:48:44;20.30;99.90
33715;DHT22;20043;50.998;4.754;2022-07-21T12:53:50;20.50;99.90
33715;DHT22;20043;50.998;4.754;2022-07-21T12:56:22;20.50;99.90
33715;DHT22;20043;50.998;4.754;2022-07-21T12:58:48;20.40;99.90
33715;DHT22;20043;50.998;4.754;2022-07-21T13:01:16;20.60;99.90
33715;DHT22;20043;50.998;4.754;2022-07-21T13:03:42;20.50;99.90
33715;DHT22;20043;50.998;4.754;2022-07-21T13:06:09;20.40;99.90
33715;DHT22;20043;50.998;4.754;2022-07-21T13:08:36;20.40;99.90
33715;DHT22;20043;50.998;4.754;2022-07-21T13:11:01;20.50;99.90
33715;DHT22;20043;50.998;4.754;2022-07-21T13:13:27;20.50;99.90
33715;DHT22;20043;50.998;4.754;2022-07-21T13:15:54;20.50;99.90
33715;DHT22;20043;50.998;4.754;2022-07-21T13:18:20;20.40;99.90
33715;DHT22;20043;50.998;4.754;2022-07-21T13:20:49;20.60;99.90
33715;DHT22;20043;50.998;4.754;2022-07-21T13:23:15;20.80;99.90
33715;DHT22;20043;50.998;4.754;2022-07-21T13:25:40;20.80;99.90
33715;DHT22;20043;50.998;4.754;2022-07-21T13:28:06;20.80;99.90
33715;DHT22;20043;50.998;4.754;2022-07-21T13:30:32;20.80;99.90
33715;DHT22;20043;50.998;4.754;2022-07-21T13:32:57;20.80;99.90
33715;DHT22;20043;50.998;4.754;2022-07-21T13:35:23;20.80;99.90
33715;DHT22;20043;50.998;4.754;2022-07-21T13:37:48;20.70;99.90
33715;DHT22;20043;50.998;4.754;2022-07-21T13:40:14;20.60;99.90
33715;DHT22;20043;50.998;4.754;2022-07-21T13:42:40;20.50;99.90
33715;DHT22;20043;50.998;4.754;2022-07-21T13:45:06;20.60;99.90
33715;DHT22;20043;50.998;4.754;2022-07-21T13:47:33;20.60;99.90
33715;DHT22;20043;50.998;4.754;2022-07-21T13:49:58;20.70;99.90
33715;DHT22;20043;50.998;4.754;2022-07-21T13:52:24;20.80;99.90
33715;DHT22;20043;50.998;4.754;2022-07-21T13:54:50;20.90;99.90
33715;DHT22;20043;50.998;4.754;2022-07-21T13:57:15;20.80;99.90
33715;DHT22;20043;50.998;4.754;2022-07-21T13:59:41;21.00;99.90
33715;DHT22;20043;50.998;4.754;2022-07-21T14:02:07;21.00;99.90
33715;DHT22;20043;50.998;4.754;2022-07-21T14:04:32;21.00;99.90
33715;DHT22;20043;50.998;4.754;2022-07-21T14:06:58;20.90;99.90
33715;DHT22;20043;50.998;4.754;2022-07-21T14:09:23;20.80;99.90
33715;DHT22;20043;50.998;4.754;2022-07-21T14:11:49;20.70;99.90
33715;DHT22;20043;50.998;4.754;2022-07-21T14:14:15;20.70;99.90
33715;DHT22;20043;50.998;4.754;2022-07-21T14:16:47;20.70;99.90
33715;DHT22;20043;50.998;4.754;2022-07-21T14:19:13;20.70;99.90
33715;DHT22;20043;50.998;4.754;2022-07-21T14:21:39;20.60;99.90
33715;DHT22;20043;50.998;4.754;2022-07-21T14:24:05;20.60;99.90
33715;DHT22;20043;50.998;4.754;2022-07-21T14:26:49;20.50;99.90
33715;DHT22;20043;50.998;4.754;2022-07-21T14:29:14;20.40;99.90
33715;DHT22;20043;50.998;4.754;2022-07-21T14:31:40;20.50;99.90
33715;DHT22;20043;50.998;4.754;2022-07-21T14:34:06;20.60;99.90
33715;DHT22;20043;50.998;4.754;2022-07-21T14:36:31;20.70;99.90
33715;DHT22;20043;50.998;4.754;2022-07-21T14:38:57;20.80;99.90
33715;DHT22;20043;50.998;4.754;2022-07-21T14:41:23;20.80;99.90
33715;DHT22;20043;50.998;4.754;2022-07-21T14:43:48;20.70;99.90
33715;DHT22;20043;50.998;4.754;2022-07-21T14:46:15;20.80;99.90
33715;DHT22;20043;50.998;4.754;2022-07-21T14:48:40;20.80;99.90
33715;DHT22;20043;50.998;4.754;2022-07-21T14:51:06;20.60;99.90
33715;DHT22;20043;50.998;4.754;2022-07-21T14:53:32;20.60;99.90
33715;DHT22;20043;50.998;4.754;2022-07-21T14:55:57;20.50;99.90
33715;DHT22;20043;50.998;4.754;2022-07-21T14:58:23;20.50;99.90
33715;DHT22;20043;50.998;4.754;2022-07-21T15:00:48;20.50;99.90
33715;DHT22;20043;50.998;4.754;2022-07-21T15:03:15;20.40;99.90
33715;DHT22;20043;50.998;4.754;2022-07-21T15:05:40;20.50;99.90
33715;DHT22;20043;50.998;4.754;2022-07-21T15:08:06;20.60;99.90
33715;DHT22;20043;50.998;4.754;2022-07-21T15:10:32;20.70;99.90
33715;DHT22;20043;50.998;4.754;2022-07-21T15:12:57;20.80;99.90
33715;DHT22;20043;50.998;4.754;2022-07-21T15:15:23;20.80;99.90
33715;DHT22;20043;50.998;4.754;2022-07-21T15:17:48;21.00;99.90
33715;DHT22;20043;50.998;4.754;2022-07-21T15:20:14;21.20;99.90
33715;DHT22;20043;50.998;4.754;2022-07-21T15:22:41;21.20;99.90
33715;DHT22;20043;50.998;4.754;2022-07-21T15:25:07;21.30;99.90
33715;DHT22;20043;50.998;4.754;2022-07-21T15:27:36;21.40;99.90
33715;DHT22;20043;50.998;4.754;2022-07-21T15:30:05;21.60;99.90
33715;DHT22;20043;50.998;4.754;2022-07-21T15:32:31;21.70;99.90
33715;DHT22;20043;50.998;4.754;2022-07-21T15:34:57;21.70;99.90
33715;DHT22;20043;50.998;4.754;2022-07-21T15:37:23;21.60;99.90
33715;DHT22;20043;50.998;4.754;2022-07-21T15:39:48;21.50;99.90
33715;DHT22;20043;50.998;4.754;2022-07-21T15:42:14;21.60;99.90
33715;DHT22;20043;50.998;4.754;2022-07-21T15:44:40;21.50;99.90
33715;DHT22;20043;50.998;4.754;2022-07-21T15:47:06;21.40;99.90
33715;DHT22;20043;50.998;4.754;2022-07-21T15:49:33;21.50;99.90
33715;DHT22;20043;50.998;4.754;2022-07-21T15:51:58;21.50;99.90
33715;DHT22;20043;50.998;4.754;2022-07-21T15:54:26;21.50;99.90
33715;DHT22;20043;50.998;4.754;2022-07-21T15:56:51;21.60;99.90
33715;DHT22;20043;50.998;4.754;2022-07-21T15:59:17;21.80;99.90
33715;DHT22;20043;50.998;4.754;2022-07-21T16:02:06;21.90;99.90
33715;DHT22;20043;50.998;4.754;2022-07-21T16:04:32;22.00;99.90
33715;DHT22;20043;50.998;4.754;2022-07-21T16:06:59;21.90;99.90
33715;DHT22;20043;50.998;4.754;2022-07-21T16:09:24;21.80;99.90
33715;DHT22;20043;50.998;4.754;2022-07-21T16:11:50;21.80;99.90
33715;DHT22;20043;50.998;4.754;2022-07-21T16:14:16;21.70;99.90
33715;DHT22;20043;50.998;4.754;2022-07-21T16:16:42;21.60;99.90